createdAt,value
2022-10-26T00:01:22.330Z,92.90
2022-10-26T00:03:50.079Z,92.90
2022-10-26T00:06:18.798Z,93.50
2022-10-26T00:08:46.796Z,93.00
2022-10-26T00:11:14.872Z,92.60
2022-10-26T00:13:42.786Z,93.70
2022-10-26T00:16:11.067Z,93.90
2022-10-26T00:18:38.740Z,93.50
2022-10-26T00:21:06.607Z,93.50
2022-10-26T00:23:34.417Z,93.20
2022-10-26T00:26:02.243Z,93.70
2022-10-26T00:28:29.865Z,93.60
2022-10-26T00:31:01.537Z,93.20
2022-10-26T00:33:31.372Z,93.10
2022-10-26T00:36:02.688Z,93.00
2022-10-26T00:38:30.801Z,92.70
2022-10-26T00:40:59.965Z,92.40
2022-10-26T00:43:28.799Z,92.20
2022-10-26T00:45:57.626Z,92.20
2022-10-26T00:48:28.292Z,92.10
2022-10-26T00:50:57.205Z,91.80
2022-10-26T00:53:25.516Z,92.00
2022-10-26T00:55:54.222Z,91.90
2022-10-26T00:58:22.357Z,91.60
2022-10-26T01:00:50.510Z,91.10
2022-10-26T01:03:18.710Z,90.80
2022-10-26T01:05:47.898Z,90.70
2022-10-26T01:08:16.876Z,90.60
2022-10-26T01:10:45.636Z,90.70
2022-10-26T01:13:14.653Z,90.30
2022-10-26T01:16:01.146Z,90.80
2022-10-26T01:18:38.326Z,90.30
2022-10-26T01:21:09.077Z,90.30
2022-10-26T01:23:36.808Z,90.30
2022-10-26T01:26:14.533Z,90.20
2022-10-26T01:28:45.231Z,90.00
2022-10-26T01:31:14.534Z,90.00
2022-10-26T01:33:45.328Z,89.80
2022-10-26T01:36:15.978Z,89.60
2022-10-26T01:39:11.504Z,89.50
2022-10-26T01:42:02.742Z,89.50
2022-10-26T01:45:03.044Z,89.60
2022-10-26T01:47:32.943Z,89.00
2022-10-26T01:50:01.696Z,89.00
2022-10-26T01:52:30.502Z,88.90
2022-10-26T01:55:02.280Z,88.70
2022-10-26T01:57:33.098Z,88.00
2022-10-26T02:00:09.816Z,88.30
2022-10-26T02:02:51.051Z,88.10
2022-10-26T02:05:22.140Z,87.50
2022-10-26T02:08:02.515Z,87.80
2022-10-26T02:10:50.088Z,87.80
2022-10-26T02:13:22.389Z,87.60
2022-10-26T02:15:56.962Z,87.50
2022-10-26T02:18:27.372Z,87.50
2022-10-26T02:20:58.646Z,86.50
2022-10-26T02:23:27.143Z,87.10
2022-10-26T02:25:59.593Z,87.00
2022-10-26T02:28:30.707Z,88.00
2022-10-26T02:31:01.429Z,87.30
2022-10-26T02:33:32.985Z,87.30
2022-10-26T02:36:01.768Z,87.40
2022-10-26T02:38:31.421Z,87.20
2022-10-26T02:41:03.230Z,87.10
2022-10-26T02:46:06.561Z,87.00
2022-10-26T02:48:34.315Z,86.90
2022-10-26T02:51:07.982Z,86.20
2022-10-26T02:53:41.628Z,86.70
2022-10-26T02:56:16.699Z,86.90
2022-10-26T02:58:50.666Z,87.00
2022-10-26T03:01:18.621Z,86.80
2022-10-26T03:03:46.324Z,85.70
2022-10-26T03:06:21.126Z,86.20
2022-10-26T03:08:49.192Z,85.90
2022-10-26T03:11:18.100Z,86.20
2022-10-26T03:13:46.114Z,86.30
2022-10-26T03:16:13.979Z,86.40
2022-10-26T03:18:45.601Z,86.10
2022-10-26T03:21:13.475Z,86.00
2022-10-26T03:23:42.551Z,84.60
2022-10-26T03:26:10.715Z,85.00
2022-10-26T03:28:38.455Z,85.30
2022-10-26T03:31:10.327Z,85.00
2022-10-26T03:36:07.020Z,85.10
2022-10-26T03:38:34.932Z,84.60
2022-10-26T03:41:06.097Z,85.30
2022-10-26T03:43:34.252Z,85.00
2022-10-26T03:46:01.832Z,84.40
2022-10-26T03:48:29.417Z,84.40
2022-10-26T03:51:00.402Z,84.00
2022-10-26T03:53:29.100Z,83.60
2022-10-26T03:55:56.660Z,83.50
2022-10-26T04:00:57.197Z,82.50
2022-10-26T04:03:25.908Z,82.50
2022-10-26T04:05:59.189Z,82.40
2022-10-26T04:08:29.474Z,82.10
2022-10-26T04:10:59.912Z,82.90
2022-10-26T04:13:30.397Z,83.70
2022-10-26T04:15:59.890Z,83.70
2022-10-26T04:18:28.527Z,83.40
2022-10-26T04:21:00.448Z,83.40
2022-10-26T04:23:28.561Z,84.10
2022-10-26T04:25:56.101Z,83.40
2022-10-26T04:28:24.652Z,83.50
2022-10-26T04:30:54.373Z,83.30
2022-10-26T04:33:22.827Z,82.70
2022-10-26T04:35:51.903Z,82.60
2022-10-26T04:38:19.855Z,83.50
2022-10-26T04:40:48.325Z,83.20
2022-10-26T04:43:17.413Z,81.60
2022-10-26T04:45:45.973Z,82.50
2022-10-26T04:48:14.650Z,82.90
2022-10-26T04:50:42.478Z,82.40
2022-10-26T04:53:16.171Z,81.60
2022-10-26T04:55:44.253Z,82.00
2022-10-26T04:58:13.940Z,82.00
2022-10-26T05:00:42.701Z,82.50
2022-10-26T05:03:14.210Z,82.40
2022-10-26T05:05:43.999Z,82.60
2022-10-26T05:08:11.889Z,83.00
2022-10-26T05:10:39.930Z,82.50
2022-10-26T05:13:07.619Z,82.20
2022-10-26T05:15:36.847Z,82.60
2022-10-26T05:18:06.657Z,82.50
2022-10-26T05:20:37.641Z,82.60
2022-10-26T05:23:09.058Z,82.80
2022-10-26T05:25:37.844Z,83.00
2022-10-26T05:28:08.343Z,82.70
2022-10-26T05:30:36.969Z,82.80
2022-10-26T05:33:04.658Z,82.80
2022-10-26T05:35:36.445Z,82.40
2022-10-26T05:38:08.839Z,83.10
2022-10-26T05:40:36.501Z,83.40
2022-10-26T05:43:07.824Z,83.10
2022-10-26T05:45:35.535Z,82.60
2022-10-26T05:48:03.715Z,82.80
2022-10-26T05:50:33.540Z,82.80
2022-10-26T05:53:01.272Z,82.60
2022-10-26T05:55:29.409Z,82.30
2022-10-26T05:58:00.112Z,82.30
2022-10-26T06:00:31.602Z,82.60
2022-10-26T06:02:59.477Z,82.80
2022-10-26T06:05:33.172Z,82.80
2022-10-26T06:08:05.500Z,83.40
2022-10-26T06:10:33.684Z,82.50
2022-10-26T06:13:01.852Z,82.90
2022-10-26T06:15:33.949Z,82.60
2022-10-26T06:18:08.602Z,82.60
2022-10-26T06:20:36.255Z,81.70
2022-10-26T06:23:25.228Z,82.20
2022-10-26T06:26:01.436Z,82.20
2022-10-26T06:28:39.543Z,81.50
2022-10-26T06:31:13.975Z,82.00
2022-10-26T06:33:45.167Z,82.20
2022-10-26T06:36:16.657Z,82.00
2022-10-26T06:38:47.727Z,82.10
2022-10-26T06:41:18.754Z,82.30
2022-10-26T06:43:49.436Z,82.10
2022-10-26T06:46:30.185Z,82.20
2022-10-26T06:49:19.799Z,82.80
2022-10-26T06:51:54.345Z,82.90
2022-10-26T06:54:37.541Z,83.10
2022-10-26T06:57:06.702Z,83.30
2022-10-26T06:59:50.213Z,83.60
2022-10-26T07:02:18.371Z,83.80
2022-10-26T07:04:46.767Z,84.60
2022-10-26T07:07:25.712Z,84.60
2022-10-26T07:09:53.566Z,84.90
2022-10-26T07:12:21.363Z,85.70
2022-10-26T07:14:51.216Z,85.30
2022-10-26T07:17:19.587Z,84.90
2022-10-26T07:19:47.735Z,84.90
2022-10-26T07:22:16.121Z,85.00
2022-10-26T07:24:43.956Z,85.20
2022-10-26T07:27:12.099Z,85.30
2022-10-26T07:29:39.961Z,85.70
2022-10-26T07:32:09.037Z,86.00
2022-10-26T07:34:40.466Z,85.70
2022-10-26T07:37:08.400Z,86.00
2022-10-26T07:39:36.187Z,86.00
2022-10-26T07:42:05.710Z,85.60
2022-10-26T07:44:34.730Z,84.90
2022-10-26T07:47:02.588Z,84.40
2022-10-26T07:49:30.228Z,84.20
2022-10-26T07:51:58.157Z,84.10
2022-10-26T07:54:27.006Z,84.00
2022-10-26T07:56:54.662Z,84.00
2022-10-26T07:59:23.115Z,84.00
2022-10-26T08:01:50.863Z,83.60
2022-10-26T08:04:43.076Z,83.20
2022-10-26T08:07:10.877Z,83.20
2022-10-26T08:09:39.149Z,83.30
2022-10-26T08:12:06.941Z,83.20
2022-10-26T08:14:35.125Z,82.80
2022-10-26T08:17:04.955Z,82.50
2022-10-26T08:19:32.533Z,82.50
2022-10-26T08:22:00.442Z,82.80
2022-10-26T08:24:28.314Z,83.30
2022-10-26T08:26:56.239Z,84.90
2022-10-26T08:29:24.428Z,87.00
2022-10-26T08:31:51.952Z,87.40
2022-10-26T08:34:19.735Z,89.60
2022-10-26T08:36:47.584Z,90.10
2022-10-26T08:39:15.462Z,89.70
2022-10-26T08:41:44.733Z,90.10
2022-10-26T08:44:25.831Z,90.10
2022-10-26T08:50:04.614Z,90.50
2022-10-26T08:52:53.064Z,90.80
2022-10-26T08:55:24.673Z,90.40
2022-10-26T08:57:54.497Z,90.60
2022-10-26T09:00:23.826Z,90.90
2022-10-26T09:02:52.284Z,91.30
2022-10-26T09:05:23.598Z,91.40
2022-10-26T09:07:58.341Z,91.80
2022-10-26T09:10:38.955Z,91.70
2022-10-26T09:13:24.961Z,92.60
2022-10-26T09:15:59.764Z,92.40
2022-10-26T09:18:41.621Z,91.90
2022-10-26T09:21:29.644Z,91.60
2022-10-26T09:24:04.230Z,91.30
2022-10-26T09:26:34.600Z,91.10
2022-10-26T09:29:04.191Z,92.60
2022-10-26T09:31:33.589Z,91.00
2022-10-26T09:34:03.751Z,90.70
2022-10-26T09:36:31.805Z,91.00
2022-10-26T09:39:14.711Z,92.70
2022-10-26T09:41:54.717Z,91.90
2022-10-26T09:44:24.686Z,91.80
2022-10-26T09:47:10.946Z,91.70
2022-10-26T09:49:50.364Z,91.80
2022-10-26T09:52:17.979Z,91.40
2022-10-26T09:54:45.686Z,92.00
2022-10-26T09:57:18.596Z,92.90
2022-10-26T09:59:49.038Z,93.00
2022-10-26T10:02:36.603Z,92.50
2022-10-26T10:05:27.541Z,92.20
2022-10-26T10:08:18.081Z,92.50
2022-10-26T10:10:59.788Z,92.70
2022-10-26T10:13:29.152Z,92.70
2022-10-26T10:16:04.346Z,92.80
2022-10-26T10:18:32.248Z,92.70
2022-10-26T10:21:00.969Z,92.90
2022-10-26T10:23:30.600Z,93.20
2022-10-26T10:26:08.986Z,93.10
2022-10-26T10:28:36.572Z,93.30
2022-10-26T10:31:19.232Z,93.20
2022-10-26T10:33:47.973Z,93.10
2022-10-26T10:36:19.004Z,93.30
2022-10-26T10:38:48.781Z,93.70
2022-10-26T10:41:33.669Z,93.60
2022-10-26T10:44:33.430Z,93.50
2022-10-26T10:47:02.448Z,93.80
2022-10-26T10:49:30.915Z,93.60
2022-10-26T10:51:59.008Z,93.70
2022-10-26T10:54:29.658Z,93.40
2022-10-26T10:57:18.327Z,93.50
2022-10-26T10:59:49.028Z,93.40
2022-10-26T11:02:28.974Z,93.10
2022-10-26T11:05:09.736Z,93.70
2022-10-26T11:07:44.751Z,95.80
2022-10-26T11:10:15.086Z,95.70
2022-10-26T11:12:47.078Z,95.20
2022-10-26T11:15:18.283Z,95.60
2022-10-26T11:17:52.947Z,96.10
2022-10-26T11:20:24.166Z,96.20
2022-10-26T11:22:55.796Z,95.70
2022-10-26T11:25:25.964Z,96.00
2022-10-26T11:27:57.693Z,96.20
2022-10-26T11:30:26.113Z,96.30
2022-10-26T11:33:04.160Z,96.20
2022-10-26T11:35:33.801Z,95.80
2022-10-26T11:38:13.602Z,96.10
2022-10-26T11:40:41.095Z,95.80
2022-10-26T11:43:16.737Z,95.40
2022-10-26T11:45:51.112Z,94.90
2022-10-26T11:48:29.038Z,95.30
2022-10-26T11:51:00.045Z,95.70
2022-10-26T11:53:38.250Z,96.20
2022-10-26T11:56:10.969Z,95.80
2022-10-26T11:58:39.388Z,95.50
2022-10-26T12:01:11.322Z,95.50
2022-10-26T12:03:44.158Z,95.30
2022-10-26T12:06:12.581Z,95.10
2022-10-26T12:08:44.383Z,94.90
2022-10-26T12:11:22.967Z,95.00
2022-10-26T12:13:57.953Z,95.10
2022-10-26T12:16:49.024Z,95.00
2022-10-26T12:19:20.765Z,95.10
2022-10-26T12:21:50.200Z,95.40
2022-10-26T12:24:26.415Z,95.60
2022-10-26T12:27:00.735Z,95.20
2022-10-26T12:29:31.731Z,94.90
2022-10-26T12:31:59.750Z,94.80
2022-10-26T12:34:30.268Z,94.80
2022-10-26T12:36:58.641Z,94.60
2022-10-26T12:39:32.314Z,94.40
2022-10-26T12:42:20.692Z,94.60
2022-10-26T12:44:49.415Z,94.70
2022-10-26T12:47:30.152Z,95.00
2022-10-26T12:50:02.762Z,94.80
2022-10-26T12:52:30.528Z,95.60
2022-10-26T12:55:14.659Z,95.50
2022-10-26T12:57:49.907Z,95.40
2022-10-26T13:00:19.139Z,96.50
2022-10-26T13:02:46.751Z,96.80
2022-10-26T13:05:20.443Z,95.80
2022-10-26T13:07:48.865Z,95.70
2022-10-26T13:10:17.158Z,95.80
2022-10-26T13:12:50.220Z,95.60
2022-10-26T13:15:26.571Z,95.60
2022-10-26T13:18:09.234Z,95.70
2022-10-26T13:20:38.237Z,95.90
2022-10-26T13:23:16.484Z,95.80
2022-10-26T13:26:02.653Z,95.40
2022-10-26T13:28:34.095Z,95.50
2022-10-26T13:31:02.435Z,95.50
2022-10-26T13:33:39.563Z,95.30
2022-10-26T13:36:24.247Z,95.40
2022-10-26T13:38:52.697Z,96.50
2022-10-26T13:41:24.465Z,95.90
2022-10-26T13:43:53.184Z,95.60
2022-10-26T13:46:27.464Z,95.90
2022-10-26T13:49:16.778Z,95.80
2022-10-26T13:51:46.783Z,95.30
2022-10-26T13:54:21.751Z,95.20
2022-10-26T13:57:07.744Z,95.50
2022-10-26T13:59:39.790Z,95.60
2022-10-26T14:02:08.351Z,95.60
2022-10-26T14:04:36.698Z,95.70
2022-10-26T14:07:06.301Z,95.30
2022-10-26T14:09:34.717Z,95.30
2022-10-26T14:12:02.634Z,95.00
2022-10-26T14:14:32.255Z,95.40
2022-10-26T14:17:00.432Z,95.80
2022-10-26T14:19:38.643Z,95.60
2022-10-26T14:22:07.096Z,95.80
2022-10-26T14:24:46.907Z,95.80
2022-10-26T14:27:17.239Z,95.60
2022-10-26T14:29:49.904Z,95.30
2022-10-26T14:32:31.285Z,95.50
2022-10-26T14:34:59.428Z,95.50
2022-10-26T14:37:30.746Z,95.90
2022-10-26T14:39:58.448Z,95.80
2022-10-26T14:42:34.014Z,96.20
2022-10-26T14:45:02.919Z,96.00
2022-10-26T14:47:32.299Z,95.80
2022-10-26T14:52:37.183Z,96.20
2022-10-26T14:55:12.401Z,96.50
2022-10-26T14:57:41.639Z,96.70
2022-10-26T15:00:17.520Z,96.60
2022-10-26T15:02:47.970Z,96.70
2022-10-26T15:05:24.909Z,96.60
2022-10-26T15:07:53.365Z,96.40
2022-10-26T15:10:37.067Z,96.70
2022-10-26T15:13:17.594Z,97.00
2022-10-26T15:15:48.471Z,96.90
2022-10-26T15:18:38.092Z,96.80
2022-10-26T15:21:16.282Z,96.40
2022-10-26T15:23:44.618Z,96.40
2022-10-26T15:26:13.219Z,96.50
2022-10-26T15:28:44.797Z,96.60
2022-10-26T15:31:12.266Z,96.80
2022-10-26T15:33:41.897Z,96.80
2022-10-26T15:36:09.382Z,96.80
2022-10-26T15:38:37.187Z,96.90
2022-10-26T15:41:06.142Z,97.10
2022-10-26T15:43:33.668Z,97.10
2022-10-26T15:46:02.679Z,96.90
2022-10-26T15:48:32.508Z,96.90
2022-10-26T15:51:01.079Z,96.90
2022-10-26T15:53:28.924Z,96.90
2022-10-26T15:56:00.751Z,96.80
2022-10-26T15:58:30.258Z,96.90
2022-10-26T16:00:57.819Z,96.80
2022-10-26T16:03:26.225Z,96.60
2022-10-26T16:06:03.271Z,96.60
2022-10-26T16:08:32.810Z,96.70
2022-10-26T16:11:01.096Z,96.80
2022-10-26T16:13:29.416Z,96.40
2022-10-26T16:15:58.419Z,96.20
2022-10-26T16:18:26.771Z,96.10
2022-10-26T16:20:54.292Z,96.40
2022-10-26T16:23:22.630Z,96.30
2022-10-26T16:25:50.943Z,96.50
2022-10-26T16:28:18.486Z,96.60
2022-10-26T16:30:46.065Z,96.60
2022-10-26T16:33:13.570Z,96.70
2022-10-26T16:35:41.920Z,96.70
2022-10-26T16:38:10.041Z,96.50
2022-10-26T16:40:37.572Z,96.40
2022-10-26T16:43:05.148Z,96.30
2022-10-26T16:45:32.900Z,96.30
2022-10-26T16:48:06.773Z,96.40
2022-10-26T16:50:36.374Z,96.40
2022-10-26T16:53:04.334Z,96.50
2022-10-26T16:55:31.989Z,96.40
2022-10-26T16:57:59.566Z,96.60
2022-10-26T17:00:27.122Z,96.30
2022-10-26T17:02:55.557Z,96.30
2022-10-26T17:05:23.863Z,96.20
2022-10-26T17:07:52.360Z,96.20
2022-10-26T17:10:20.922Z,96.10
2022-10-26T17:12:48.715Z,96.00
2022-10-26T17:15:19.728Z,96.00
2022-10-26T17:17:48.577Z,95.90
2022-10-26T17:20:17.340Z,96.00
2022-10-26T17:22:45.644Z,95.90
2022-10-26T17:25:13.213Z,96.00
2022-10-26T17:27:46.466Z,96.10
2022-10-26T17:30:15.933Z,96.10
2022-10-26T17:32:44.267Z,96.10
2022-10-26T17:35:12.534Z,96.10
2022-10-26T17:37:41.945Z,96.10
2022-10-26T17:40:10.533Z,95.90
2022-10-26T17:42:38.074Z,95.80
2022-10-26T17:45:06.550Z,95.70
2022-10-26T17:47:34.864Z,95.80
2022-10-26T17:50:05.266Z,95.90
2022-10-26T17:52:32.922Z,95.90
2022-10-26T17:55:02.636Z,96.10
2022-10-26T17:57:31.436Z,96.10
2022-10-26T17:59:58.951Z,96.10
2022-10-26T18:02:26.661Z,96.40
2022-10-26T18:04:55.058Z,96.30
2022-10-26T18:07:22.583Z,96.30
2022-10-26T18:09:50.051Z,96.30
2022-10-26T18:12:18.292Z,96.60
2022-10-26T18:14:46.575Z,96.40
2022-10-26T18:17:14.888Z,96.40
2022-10-26T18:19:43.106Z,96.20
2022-10-26T18:22:11.380Z,96.20
2022-10-26T18:24:39.711Z,96.40
2022-10-26T18:27:07.193Z,96.50
2022-10-26T18:29:36.231Z,96.40
2022-10-26T18:32:06.507Z,96.40
2022-10-26T18:34:34.770Z,96.20
2022-10-26T18:37:03.074Z,96.40
2022-10-26T18:39:33.294Z,96.40
2022-10-26T18:42:01.784Z,96.30
2022-10-26T18:44:30.136Z,96.00
2022-10-26T18:46:58.422Z,96.10
2022-10-26T18:49:26.875Z,96.20
2022-10-26T18:51:55.277Z,96.50
2022-10-26T18:54:22.804Z,96.40
2022-10-26T18:56:50.305Z,96.30
2022-10-26T18:59:17.851Z,96.40
2022-10-26T19:01:47.812Z,96.30
2022-10-26T19:04:16.192Z,96.10
2022-10-26T19:06:48.639Z,96.10
2022-10-26T19:09:17.557Z,96.10
2022-10-26T19:11:45.193Z,95.90
2022-10-26T19:14:14.097Z,95.80
2022-10-26T19:16:47.160Z,95.90
2022-10-26T19:19:18.946Z,95.80
2022-10-26T19:21:48.103Z,95.90
2022-10-26T19:24:23.495Z,95.60
2022-10-26T19:26:52.171Z,95.70
2022-10-26T19:29:20.524Z,95.70
2022-10-26T19:31:48.850Z,95.80
2022-10-26T19:34:17.575Z,95.60
2022-10-26T19:36:47.349Z,95.80
2022-10-26T19:39:16.529Z,95.80
2022-10-26T19:41:45.686Z,95.70
2022-10-26T19:44:14.813Z,95.90
2022-10-26T19:46:43.800Z,95.70
2022-10-26T19:49:13.305Z,95.80
2022-10-26T19:51:40.919Z,95.80
2022-10-26T19:54:09.643Z,95.50
2022-10-26T19:56:38.416Z,95.30
2022-10-26T19:59:07.430Z,95.40
2022-10-26T20:01:35.001Z,95.20
2022-10-26T20:04:03.164Z,95.30
2022-10-26T20:06:31.372Z,95.20
2022-10-26T20:08:59.515Z,95.30
2022-10-26T20:11:27.101Z,95.20
2022-10-26T20:13:56.664Z,95.30
2022-10-26T20:16:25.473Z,95.20
2022-10-26T20:18:53.054Z,95.20
2022-10-26T20:21:20.933Z,95.10
2022-10-26T20:23:49.324Z,95.10
2022-10-26T20:26:20.090Z,95.10
2022-10-26T20:28:49.715Z,95.10
2022-10-26T20:31:18.005Z,95.30
2022-10-26T20:33:49.476Z,95.30
2022-10-26T20:36:19.812Z,95.30
2022-10-26T20:38:48.768Z,95.20
2022-10-26T20:41:16.679Z,95.10
2022-10-26T20:43:45.170Z,95.20
2022-10-26T20:46:20.333Z,95.10
2022-10-26T20:48:48.727Z,95.30
2022-10-26T20:51:22.230Z,95.50
2022-10-26T20:54:01.994Z,95.40
2022-10-26T20:56:30.744Z,95.50
2022-10-26T20:58:59.432Z,95.50
2022-10-26T21:01:31.337Z,95.60
2022-10-26T21:04:00.688Z,95.70
2022-10-26T21:06:29.441Z,95.90
2022-10-26T21:08:57.221Z,95.60
2022-10-26T21:11:26.565Z,95.80
2022-10-26T21:13:55.876Z,95.80
2022-10-26T21:16:24.184Z,95.70
2022-10-26T21:18:52.562Z,95.70
2022-10-26T21:21:20.867Z,95.80
2022-10-26T21:23:48.374Z,95.60
2022-10-26T21:26:16.745Z,95.50
2022-10-26T21:28:48.473Z,95.50
2022-10-26T21:31:18.147Z,95.60
2022-10-26T21:33:47.269Z,95.40
2022-10-26T21:36:15.259Z,95.40
2022-10-26T21:38:44.148Z,95.40
2022-10-26T21:41:13.593Z,95.40
2022-10-26T21:43:42.558Z,95.40
2022-10-26T21:46:11.548Z,95.60
2022-10-26T21:48:41.316Z,95.60
2022-10-26T21:51:11.162Z,95.60
2022-10-26T21:53:39.615Z,95.60
2022-10-26T21:56:10.775Z,95.50
2022-10-26T21:58:38.482Z,95.60
2022-10-26T22:01:11.559Z,95.70
2022-10-26T22:03:40.632Z,95.30
2022-10-26T22:06:09.508Z,95.30
2022-10-26T22:08:38.361Z,95.00
2022-10-26T22:11:12.989Z,95.00
2022-10-26T22:13:43.469Z,95.10
2022-10-26T22:16:12.542Z,95.20
2022-10-26T22:18:41.202Z,95.40
2022-10-26T22:21:10.370Z,95.40
2022-10-26T22:23:40.545Z,95.60
2022-10-26T22:26:12.418Z,95.60
2022-10-26T22:28:42.727Z,95.50
2022-10-26T22:31:13.507Z,95.40
2022-10-26T22:33:42.308Z,96.00
2022-10-26T22:36:13.786Z,96.10
2022-10-26T22:38:41.659Z,95.90
2022-10-26T22:41:10.282Z,96.40
2022-10-26T22:43:39.045Z,96.50
2022-10-26T22:46:08.614Z,96.60
2022-10-26T22:48:36.986Z,96.30
2022-10-26T22:51:08.311Z,96.30
2022-10-26T22:53:35.893Z,96.30
2022-10-26T22:56:04.306Z,96.20
2022-10-26T22:58:32.688Z,96.00
2022-10-26T23:01:09.043Z,96.20
2022-10-26T23:03:37.877Z,96.30
2022-10-26T23:06:07.119Z,96.20
2022-10-26T23:08:34.684Z,96.10
2022-10-26T23:11:03.367Z,96.30
2022-10-26T23:13:31.682Z,96.50
2022-10-26T23:16:12.875Z,96.50
2022-10-26T23:18:41.341Z,96.80
2022-10-26T23:21:09.697Z,96.50
2022-10-26T23:23:38.535Z,96.70
2022-10-26T23:26:08.330Z,96.60
2022-10-26T23:28:36.186Z,96.30
2022-10-26T23:31:04.718Z,96.50
2022-10-26T23:33:32.585Z,96.80
2022-10-26T23:36:01.453Z,96.50
2022-10-26T23:38:29.188Z,96.20
2022-10-26T23:40:58.093Z,96.10
2022-10-26T23:43:27.409Z,96.80
2022-10-26T23:45:56.361Z,97.30
2022-10-26T23:48:24.675Z,97.00
2022-10-26T23:50:53.080Z,97.20
2022-10-26T23:53:22.340Z,97.10
2022-10-26T23:55:50.123Z,96.80
2022-10-26T23:58:18.498Z,97.00
